createdAt,value
2022-09-13T00:00:16.463Z,12.38
2022-09-13T00:02:20.959Z,12.38
2022-09-13T00:04:26.995Z,12.35
2022-09-13T00:06:31.090Z,12.34
2022-09-13T00:08:35.473Z,12.30
2022-09-13T00:10:41.339Z,12.28
2022-09-13T00:12:45.803Z,12.25
2022-09-13T00:14:50.436Z,12.19
2022-09-13T00:16:55.198Z,12.15
2022-09-13T00:19:01.617Z,12.11
2022-09-13T00:21:09.859Z,12.06
2022-09-13T00:23:14.785Z,12.03
2022-09-13T00:25:19.798Z,11.98
2022-09-13T00:27:24.001Z,11.94
2022-09-13T00:29:29.194Z,11.93
2022-09-13T00:31:33.568Z,11.90
2022-09-13T00:33:38.510Z,11.89
2022-09-13T00:35:43.049Z,11.87
2022-09-13T00:37:49.355Z,11.83
2022-09-13T00:39:53.565Z,11.79
2022-09-13T00:41:58.499Z,11.77
2022-09-13T00:44:03.814Z,11.76
2022-09-13T00:46:08.851Z,11.76
2022-09-13T00:48:20.214Z,11.74
2022-09-13T00:50:30.241Z,11.72
2022-09-13T00:52:36.930Z,11.73
2022-09-13T00:54:45.922Z,11.73
2022-09-13T00:56:55.169Z,11.71
2022-09-13T00:59:03.506Z,11.68
2022-09-13T01:01:11.441Z,11.65
2022-09-13T01:03:17.263Z,11.64
2022-09-13T01:05:26.648Z,11.63
2022-09-13T01:07:30.812Z,11.63
2022-09-13T01:09:40.200Z,11.59
2022-09-13T01:11:50.931Z,11.58
2022-09-13T01:13:56.666Z,11.56
2022-09-13T01:16:01.693Z,11.54
2022-09-13T01:18:07.780Z,11.54
2022-09-13T01:20:14.895Z,11.53
2022-09-13T01:22:52.055Z,11.52
2022-09-13T01:25:23.937Z,11.52
2022-09-13T01:27:39.426Z,11.46
2022-09-13T01:30:14.512Z,11.44
2022-09-13T01:32:29.540Z,11.43
2022-09-13T01:34:47.290Z,11.40
2022-09-13T01:37:12.383Z,11.37
2022-09-13T01:39:23.698Z,11.34
2022-09-13T01:41:44.203Z,11.30
2022-09-13T01:43:58.451Z,11.28
2022-09-13T01:46:07.916Z,11.25
2022-09-13T01:48:20.399Z,11.16
2022-09-13T01:50:33.433Z,11.15
2022-09-13T01:52:46.260Z,11.15
2022-09-13T01:54:59.281Z,11.14
2022-09-13T01:57:11.193Z,11.12
2022-09-13T01:59:20.402Z,11.11
2022-09-13T02:01:30.396Z,11.09
2022-09-13T02:03:41.334Z,11.10
2022-09-13T02:05:52.062Z,11.10
2022-09-13T02:08:01.469Z,11.07
2022-09-13T02:10:10.225Z,11.06
2022-09-13T02:12:19.874Z,11.05
2022-09-13T02:14:30.300Z,11.03
2022-09-13T02:16:40.117Z,11.01
2022-09-13T02:18:49.067Z,11.00
2022-09-13T02:20:56.479Z,10.97
2022-09-13T02:23:04.685Z,10.97
2022-09-13T02:25:11.819Z,10.93
2022-09-13T02:27:20.703Z,10.92
2022-09-13T02:29:29.174Z,10.92
2022-09-13T02:31:42.106Z,10.92
2022-09-13T02:33:51.143Z,10.90
2022-09-13T02:36:01.189Z,10.88
2022-09-13T02:38:10.616Z,10.87
2022-09-13T02:40:23.571Z,10.83
2022-09-13T02:42:36.748Z,10.82
2022-09-13T02:44:45.126Z,10.81
2022-09-13T02:47:14.934Z,10.79
2022-09-13T02:49:26.896Z,10.77
2022-09-13T02:51:36.282Z,10.76
2022-09-13T02:53:45.821Z,10.76
2022-09-13T02:55:56.725Z,10.75
2022-09-13T02:58:09.086Z,10.74
2022-09-13T03:00:14.131Z,10.73
2022-09-13T03:02:24.651Z,10.72
2022-09-13T03:04:30.024Z,10.69
2022-09-13T03:06:34.524Z,10.69
2022-09-13T03:08:39.693Z,10.65
2022-09-13T03:10:53.124Z,10.63
2022-09-13T03:13:37.624Z,10.61
2022-09-13T03:15:53.793Z,10.58
2022-09-13T03:18:11.746Z,10.59
2022-09-13T03:20:26.463Z,10.58
2022-09-13T03:23:00.580Z,10.56
2022-09-13T03:25:10.913Z,10.58
2022-09-13T03:27:20.986Z,10.61
2022-09-13T03:29:34.848Z,10.64
2022-09-13T03:31:46.364Z,10.68
2022-09-13T03:34:00.991Z,10.70
2022-09-13T03:36:13.737Z,10.74
2022-09-13T03:38:21.568Z,10.77
2022-09-13T03:40:37.808Z,10.81
2022-09-13T03:42:48.516Z,10.86
2022-09-13T03:44:56.320Z,10.90
2022-09-13T03:47:05.697Z,10.91
2022-09-13T03:49:15.591Z,10.93
2022-09-13T03:51:20.682Z,10.92
2022-09-13T03:53:28.772Z,10.93
2022-09-13T03:55:36.694Z,10.93
2022-09-13T03:57:40.955Z,10.93
2022-09-13T03:59:48.346Z,10.90
2022-09-13T04:01:52.879Z,10.89
2022-09-13T04:03:57.454Z,10.84
2022-09-13T04:06:03.203Z,10.81
2022-09-13T04:08:09.289Z,10.79
2022-09-13T04:10:14.654Z,10.77
2022-09-13T04:12:20.726Z,10.74
2022-09-13T04:14:26.977Z,10.73
2022-09-13T04:16:31.298Z,10.70
2022-09-13T04:18:36.113Z,10.67
2022-09-13T04:20:40.359Z,10.67
2022-09-13T04:22:45.679Z,10.68
2022-09-13T04:24:49.451Z,10.66
2022-09-13T04:26:53.377Z,10.65
2022-09-13T04:28:57.116Z,10.65
2022-09-13T04:31:00.611Z,10.66
2022-09-13T04:33:04.195Z,10.68
2022-09-13T04:35:08.560Z,10.70
2022-09-13T04:37:12.387Z,10.72
2022-09-13T04:39:17.201Z,10.75
2022-09-13T04:41:20.830Z,10.76
2022-09-13T04:43:24.858Z,10.77
2022-09-13T04:45:28.627Z,10.78
2022-09-13T04:47:32.337Z,10.81
2022-09-13T04:49:36.048Z,10.83
2022-09-13T04:51:39.633Z,10.88
2022-09-13T04:53:43.255Z,10.90
2022-09-13T04:55:48.095Z,10.92
2022-09-13T04:57:55.915Z,10.93
2022-09-13T04:59:59.367Z,10.95
2022-09-13T05:02:02.900Z,10.96
2022-09-13T05:04:08.005Z,10.97
2022-09-13T05:06:14.319Z,10.97
2022-09-13T05:08:17.858Z,10.96
2022-09-13T05:10:21.727Z,10.95
2022-09-13T05:12:26.574Z,10.93
2022-09-13T05:14:30.063Z,10.90
2022-09-13T05:16:35.307Z,10.89
2022-09-13T05:18:42.034Z,10.87
2022-09-13T05:20:48.556Z,10.83
2022-09-13T05:22:52.121Z,10.81
2022-09-13T05:24:56.155Z,10.78
2022-09-13T05:26:59.938Z,10.77
2022-09-13T05:29:06.089Z,10.75
2022-09-13T05:31:14.306Z,10.74
2022-09-13T05:33:17.673Z,10.73
2022-09-13T05:35:21.307Z,10.71
2022-09-13T05:37:24.779Z,10.67
2022-09-13T05:39:36.377Z,10.64
2022-09-13T05:41:47.638Z,10.60
2022-09-13T05:43:54.135Z,10.58
2022-09-13T05:46:05.250Z,10.56
2022-09-13T05:48:08.902Z,10.55
2022-09-13T05:50:27.244Z,10.55
2022-09-13T05:52:36.302Z,10.55
2022-09-13T05:54:39.847Z,10.56
2022-09-13T05:56:43.469Z,10.58
2022-09-13T05:58:49.427Z,10.60
2022-09-13T06:00:55.476Z,10.62
2022-09-13T06:03:00.948Z,10.60
2022-09-13T06:05:04.644Z,10.60
2022-09-13T06:07:08.110Z,10.61
2022-09-13T06:09:13.428Z,10.64
2022-09-13T06:11:17.027Z,10.66
2022-09-13T06:13:20.342Z,10.67
2022-09-13T06:15:23.799Z,10.71
2022-09-13T06:17:27.388Z,10.75
2022-09-13T06:19:32.289Z,10.79
2022-09-13T06:21:36.270Z,10.81
2022-09-13T06:23:40.076Z,10.87
2022-09-13T06:25:44.400Z,10.92
2022-09-13T06:27:50.003Z,10.94
2022-09-13T06:29:54.616Z,10.98
2022-09-13T06:31:58.290Z,11.05
2022-09-13T06:34:03.581Z,11.10
2022-09-13T06:36:10.730Z,11.17
2022-09-13T06:38:14.163Z,11.25
2022-09-13T06:40:21.802Z,11.41
2022-09-13T06:42:28.019Z,11.61
2022-09-13T06:44:31.372Z,11.80
2022-09-13T06:46:37.085Z,11.95
2022-09-13T06:48:42.126Z,11.97
2022-09-13T06:50:45.916Z,11.97
2022-09-13T06:52:50.585Z,11.96
2022-09-13T06:54:53.912Z,11.96
2022-09-13T06:57:04.742Z,11.99
2022-09-13T06:59:10.590Z,12.02
2022-09-13T07:01:16.361Z,12.04
2022-09-13T07:03:20.355Z,12.11
2022-09-13T07:05:24.503Z,12.17
2022-09-13T07:07:28.751Z,12.24
2022-09-13T07:09:34.495Z,12.28
2022-09-13T07:11:40.710Z,12.29
2022-09-13T07:13:44.857Z,12.30
2022-09-13T07:15:48.808Z,12.31
2022-09-13T07:17:52.395Z,12.34
2022-09-13T07:19:55.979Z,12.37
2022-09-13T07:22:00.148Z,12.37
2022-09-13T07:24:04.450Z,12.39
2022-09-13T07:26:10.065Z,12.39
2022-09-13T07:28:13.817Z,12.42
2022-09-13T07:30:17.114Z,12.46
2022-09-13T07:32:21.278Z,12.52
2022-09-13T07:34:26.863Z,12.59
2022-09-13T07:36:33.076Z,12.65
2022-09-13T07:38:37.900Z,12.70
2022-09-13T07:40:41.708Z,12.74
2022-09-13T07:42:47.025Z,12.79
2022-09-13T07:44:50.848Z,12.80
2022-09-13T07:46:54.640Z,12.84
2022-09-13T07:48:59.249Z,12.88
2022-09-13T07:51:04.979Z,12.91
2022-09-13T07:53:08.826Z,12.91
2022-09-13T07:55:12.573Z,12.93
2022-09-13T07:57:16.487Z,12.96
2022-09-13T07:59:21.631Z,12.98
2022-09-13T08:01:27.473Z,12.96
2022-09-13T08:03:31.669Z,12.96
2022-09-13T08:05:40.755Z,12.96
2022-09-13T08:07:44.780Z,12.96
2022-09-13T08:09:48.738Z,12.96
2022-09-13T08:11:53.657Z,12.96
2022-09-13T08:13:58.436Z,12.97
2022-09-13T08:16:06.685Z,12.97
2022-09-13T08:18:10.866Z,13.00
2022-09-13T08:20:14.863Z,13.04
2022-09-13T08:22:19.123Z,13.04
2022-09-13T08:24:23.470Z,13.06
2022-09-13T08:26:27.773Z,13.08
2022-09-13T08:28:32.898Z,13.12
2022-09-13T08:30:37.467Z,13.17
2022-09-13T08:32:42.753Z,13.25
2022-09-13T08:34:47.057Z,13.31
2022-09-13T08:36:50.930Z,13.36
2022-09-13T08:38:58.015Z,13.42
2022-09-13T08:41:06.651Z,13.48
2022-09-13T08:43:24.012Z,13.58
2022-09-13T08:45:27.735Z,13.65
2022-09-13T08:47:45.112Z,13.73
2022-09-13T08:49:52.396Z,13.78
2022-09-13T08:52:00.413Z,13.79
2022-09-13T08:54:04.986Z,13.82
2022-09-13T08:56:13.027Z,13.83
2022-09-13T08:58:32.209Z,13.84
2022-09-13T09:00:41.427Z,13.89
2022-09-13T09:03:03.540Z,13.92
2022-09-13T09:05:16.936Z,13.92
2022-09-13T09:07:25.776Z,13.88
2022-09-13T09:09:41.844Z,13.84
2022-09-13T09:11:52.547Z,13.83
2022-09-13T09:14:05.387Z,13.87
2022-09-13T09:16:21.241Z,13.90
2022-09-13T09:18:32.991Z,13.96
2022-09-13T09:20:42.691Z,14.03
2022-09-13T09:22:48.952Z,14.07
2022-09-13T09:24:56.495Z,14.09
2022-09-13T09:27:03.482Z,14.16
2022-09-13T09:29:20.678Z,14.22
2022-09-13T09:31:37.484Z,14.33
2022-09-13T09:33:55.393Z,14.41
2022-09-13T09:36:07.401Z,14.40
2022-09-13T09:38:31.755Z,14.44
2022-09-13T09:40:38.632Z,14.46
2022-09-13T09:42:45.255Z,14.45
2022-09-13T09:44:53.062Z,14.43
2022-09-13T09:47:01.309Z,14.34
2022-09-13T09:49:37.249Z,14.32
2022-09-13T09:51:42.078Z,14.34
2022-09-13T09:53:49.132Z,14.35
2022-09-13T09:55:57.662Z,14.36
2022-09-13T09:58:04.651Z,14.34
2022-09-13T10:00:15.008Z,14.23
2022-09-13T10:02:21.862Z,14.07
2022-09-13T10:04:27.685Z,14.03
2022-09-13T10:06:32.877Z,14.00
2022-09-13T10:08:39.853Z,14.02
2022-09-13T10:10:46.265Z,14.07
2022-09-13T10:12:54.378Z,14.11
2022-09-13T10:15:07.241Z,14.15
2022-09-13T10:17:21.911Z,14.19
2022-09-13T10:19:28.670Z,14.16
2022-09-13T10:21:32.723Z,14.13
2022-09-13T10:23:38.053Z,14.12
2022-09-13T10:25:47.866Z,14.06
2022-09-13T10:27:57.186Z,14.08
2022-09-13T10:30:04.191Z,14.05
2022-09-13T10:32:13.203Z,14.02
2022-09-13T10:34:22.642Z,13.96
2022-09-13T10:36:51.668Z,13.86
2022-09-13T10:39:01.024Z,13.80
2022-09-13T10:41:10.040Z,13.82
2022-09-13T10:43:20.508Z,13.82
2022-09-13T10:45:26.836Z,13.82
2022-09-13T10:47:36.128Z,13.86
2022-09-13T10:49:44.418Z,13.92
2022-09-13T10:51:49.995Z,14.00
2022-09-13T10:54:08.857Z,14.07
2022-09-13T10:56:23.202Z,14.05
2022-09-13T10:58:27.151Z,14.02
2022-09-13T11:00:41.025Z,13.93
2022-09-13T11:02:57.372Z,13.82
2022-09-13T11:05:22.862Z,13.80
2022-09-13T11:07:45.683Z,13.76
2022-09-13T11:09:58.422Z,13.81
2022-09-13T11:12:12.117Z,13.86
2022-09-13T11:14:29.051Z,13.90
2022-09-13T11:16:46.395Z,13.91
2022-09-13T11:19:18.931Z,13.98
2022-09-13T11:21:44.084Z,14.02
2022-09-13T11:24:04.560Z,14.01
2022-09-13T11:26:25.770Z,14.04
2022-09-13T11:28:42.537Z,14.00
2022-09-13T11:31:04.654Z,13.99
2022-09-13T11:33:24.924Z,14.03
2022-09-13T11:35:44.569Z,14.19
2022-09-13T11:37:59.413Z,14.30
2022-09-13T11:40:24.310Z,14.34
2022-09-13T11:42:41.995Z,14.38
2022-09-13T11:45:30.139Z,14.61
2022-09-13T11:47:48.790Z,14.76
2022-09-13T11:50:11.823Z,14.82
2022-09-13T11:52:31.333Z,14.86
2022-09-13T11:54:53.866Z,14.79
2022-09-13T11:57:04.425Z,14.79
2022-09-13T11:59:20.141Z,14.79
2022-09-13T12:01:29.624Z,14.77
2022-09-13T12:03:41.497Z,14.75
2022-09-13T12:05:49.572Z,14.80
2022-09-13T12:07:58.351Z,14.86
2022-09-13T12:10:07.820Z,14.87
2022-09-13T12:12:15.674Z,15.00
2022-09-13T12:14:23.893Z,15.14
2022-09-13T12:16:36.024Z,15.11
2022-09-13T12:18:46.172Z,15.07
2022-09-13T12:20:53.122Z,15.06
2022-09-13T12:23:00.011Z,15.10
2022-09-13T12:25:08.152Z,15.21
2022-09-13T12:27:23.670Z,15.27
2022-09-13T12:29:36.878Z,15.25
2022-09-13T12:31:41.577Z,15.26
2022-09-13T12:33:48.465Z,15.28
2022-09-13T12:36:32.984Z,15.30
2022-09-13T12:39:11.895Z,15.33
2022-09-13T12:41:38.120Z,15.40
2022-09-13T12:43:58.949Z,15.41
2022-09-13T12:46:28.513Z,15.43
2022-09-13T12:48:55.967Z,15.55
2022-09-13T12:51:10.430Z,15.69
2022-09-13T12:53:36.189Z,15.76
2022-09-13T12:56:11.537Z,15.78
2022-09-13T12:58:32.705Z,15.76
2022-09-13T13:00:43.711Z,15.81
2022-09-13T13:02:59.966Z,15.79
2022-09-13T13:05:07.707Z,15.59
2022-09-13T13:07:23.048Z,15.47
2022-09-13T13:09:39.032Z,15.41
2022-09-13T13:11:47.500Z,15.49
2022-09-13T13:13:58.883Z,15.67
2022-09-13T13:16:23.321Z,15.81
2022-09-13T13:18:31.768Z,15.84
2022-09-13T13:21:09.779Z,15.81
2022-09-13T13:23:23.939Z,15.80
2022-09-13T13:25:36.237Z,15.80
2022-09-13T13:27:48.627Z,15.87
2022-09-13T13:30:54.666Z,15.95
2022-09-13T13:33:19.403Z,15.96
2022-09-13T13:35:32.621Z,16.02
2022-09-13T13:37:38.918Z,15.94
2022-09-13T13:39:44.704Z,15.88
2022-09-13T13:41:56.287Z,15.79
2022-09-13T13:44:00.715Z,15.75
2022-09-13T13:46:28.434Z,15.66
2022-09-13T13:48:42.377Z,15.61
2022-09-13T13:51:19.600Z,15.65
2022-09-13T13:53:35.143Z,15.56
2022-09-13T13:55:47.656Z,15.40
2022-09-13T13:58:01.371Z,15.31
2022-09-13T14:00:16.298Z,15.23
2022-09-13T14:02:24.827Z,15.22
2022-09-13T14:04:59.382Z,15.30
2022-09-13T14:07:21.309Z,15.42
2022-09-13T14:09:36.934Z,15.44
2022-09-13T14:11:53.808Z,15.40
2022-09-13T14:14:13.841Z,15.37
2022-09-13T14:16:35.739Z,15.28
2022-09-13T14:19:24.605Z,15.27
2022-09-13T14:21:31.928Z,15.30
2022-09-13T14:23:36.272Z,15.32
2022-09-13T14:25:40.967Z,15.36
2022-09-13T14:27:46.172Z,15.40
2022-09-13T14:29:52.494Z,15.47
2022-09-13T14:32:03.990Z,15.50
2022-09-13T14:34:08.222Z,15.51
2022-09-13T14:36:20.546Z,15.50
2022-09-13T14:38:33.246Z,15.48
2022-09-13T14:40:37.933Z,15.48
2022-09-13T14:42:42.953Z,15.55
2022-09-13T14:44:47.423Z,15.56
2022-09-13T14:46:56.377Z,15.59
2022-09-13T14:49:03.946Z,15.51
2022-09-13T14:51:15.643Z,15.45
2022-09-13T14:53:23.551Z,15.46
2022-09-13T14:55:32.519Z,15.47
2022-09-13T14:57:40.544Z,15.48
2022-09-13T14:59:48.414Z,15.43
2022-09-13T15:01:52.179Z,15.34
2022-09-13T15:03:59.797Z,15.36
2022-09-13T15:06:06.382Z,15.42
2022-09-13T15:08:41.449Z,15.54
2022-09-13T15:10:47.048Z,15.61
2022-09-13T15:12:53.161Z,15.63
2022-09-13T15:15:22.698Z,15.59
2022-09-13T15:17:26.431Z,15.53
2022-09-13T15:19:36.712Z,15.50
2022-09-13T15:21:40.418Z,15.49
2022-09-13T15:23:50.514Z,15.50
2022-09-13T15:25:58.379Z,15.51
2022-09-13T15:28:02.065Z,15.50
2022-09-13T15:30:07.854Z,15.53
2022-09-13T15:32:23.190Z,15.49
2022-09-13T15:34:28.498Z,15.47
2022-09-13T15:36:32.564Z,15.51
2022-09-13T15:38:36.879Z,15.48
2022-09-13T15:40:45.374Z,15.47
2022-09-13T15:42:54.459Z,15.53
2022-09-13T15:44:58.918Z,15.60
2022-09-13T15:47:05.176Z,15.62
2022-09-13T15:49:09.363Z,15.63
2022-09-13T15:51:15.683Z,15.67
2022-09-13T15:53:19.961Z,15.65
2022-09-13T15:55:24.584Z,15.64
2022-09-13T15:57:30.792Z,15.69
2022-09-13T15:59:36.409Z,15.77
2022-09-13T16:01:40.787Z,15.82
2022-09-13T16:03:45.266Z,15.82
2022-09-13T16:05:49.323Z,15.77
2022-09-13T16:07:55.192Z,15.75
2022-09-13T16:10:00.097Z,15.73
2022-09-13T16:12:04.872Z,15.69
2022-09-13T16:14:09.029Z,15.66
2022-09-13T16:16:16.905Z,15.60
2022-09-13T16:18:20.862Z,15.51
2022-09-13T16:20:25.021Z,15.43
2022-09-13T16:22:29.028Z,15.44
2022-09-13T16:24:32.923Z,15.43
2022-09-13T16:26:36.842Z,15.45
2022-09-13T16:28:41.633Z,15.47
2022-09-13T16:30:45.796Z,15.51
2022-09-13T16:32:51.418Z,15.61
2022-09-13T16:34:55.604Z,15.66
2022-09-13T16:36:59.788Z,15.72
2022-09-13T16:39:03.996Z,15.77
2022-09-13T16:41:08.931Z,15.81
2022-09-13T16:43:14.197Z,15.83
2022-09-13T16:45:18.744Z,15.82
2022-09-13T16:47:23.334Z,15.83
2022-09-13T16:49:29.519Z,15.81
2022-09-13T16:51:34.853Z,15.78
2022-09-13T16:53:41.633Z,15.80
2022-09-13T16:55:46.435Z,15.79
2022-09-13T16:57:52.674Z,15.76
2022-09-13T16:59:58.674Z,15.74
2022-09-13T17:02:02.835Z,15.73
2022-09-13T17:04:08.547Z,15.67
2022-09-13T17:06:16.461Z,15.63
2022-09-13T17:08:20.587Z,15.62
2022-09-13T17:10:25.676Z,15.61
2022-09-13T17:12:30.250Z,15.59
2022-09-13T17:14:34.701Z,15.59
2022-09-13T17:16:43.013Z,15.59
2022-09-13T17:18:47.498Z,15.55
2022-09-13T17:20:52.134Z,15.53
2022-09-13T17:22:57.499Z,15.53
2022-09-13T17:25:02.265Z,15.51
2022-09-13T17:27:07.121Z,15.43
2022-09-13T17:29:13.539Z,15.35
2022-09-13T17:31:17.562Z,15.22
2022-09-13T17:33:21.820Z,15.14
2022-09-13T17:35:25.865Z,15.03
2022-09-13T17:37:29.772Z,14.98
2022-09-13T17:39:34.902Z,14.93
2022-09-13T17:41:39.370Z,14.87
2022-09-13T17:43:44.345Z,14.85
2022-09-13T17:45:47.998Z,14.83
2022-09-13T17:47:54.689Z,14.79
2022-09-13T17:49:58.593Z,14.72
2022-09-13T17:52:02.551Z,14.67
2022-09-13T17:54:10.010Z,14.61
2022-09-13T17:56:21.558Z,14.56
2022-09-13T17:58:27.258Z,14.52
2022-09-13T18:00:31.810Z,14.48
2022-09-13T18:02:35.488Z,14.46
2022-09-13T18:04:39.448Z,14.43
2022-09-13T18:06:44.771Z,14.38
2022-09-13T18:08:48.962Z,14.35
2022-09-13T18:11:12.162Z,14.33
2022-09-13T18:13:18.482Z,14.28
2022-09-13T18:15:22.362Z,14.25
2022-09-13T18:17:26.159Z,14.20
2022-09-13T18:19:45.314Z,14.17
2022-09-13T18:21:49.350Z,14.15
2022-09-13T18:23:56.152Z,14.13
2022-09-13T18:26:03.012Z,14.12
2022-09-13T18:28:08.855Z,14.10
2022-09-13T18:30:14.799Z,14.04
2022-09-13T18:32:18.872Z,13.98
2022-09-13T18:34:27.435Z,13.94
2022-09-13T18:36:33.950Z,13.91
2022-09-13T18:38:39.373Z,13.86
2022-09-13T18:40:43.546Z,13.85
2022-09-13T18:42:47.824Z,13.84
2022-09-13T18:44:52.950Z,13.83
2022-09-13T18:46:58.491Z,13.80
2022-09-13T18:49:03.904Z,13.76
2022-09-13T18:51:10.162Z,13.73
2022-09-13T18:53:14.179Z,13.69
2022-09-13T18:55:18.167Z,13.63
2022-09-13T18:57:22.163Z,13.59
2022-09-13T18:59:26.343Z,13.56
2022-09-13T19:01:32.091Z,13.53
2022-09-13T19:03:40.492Z,13.48
2022-09-13T19:05:44.520Z,13.44
2022-09-13T19:07:48.395Z,13.39
2022-09-13T19:09:52.690Z,13.34
2022-09-13T19:11:56.387Z,13.31
2022-09-13T19:14:00.490Z,13.27
2022-09-13T19:16:07.916Z,13.22
2022-09-13T19:18:12.018Z,13.17
2022-09-13T19:20:17.827Z,13.14
2022-09-13T19:22:21.982Z,13.12
2022-09-13T19:24:26.702Z,13.09
2022-09-13T19:26:32.974Z,13.07
2022-09-13T19:28:36.798Z,13.02
2022-09-13T19:30:40.846Z,12.98
2022-09-13T19:32:44.926Z,12.93
2022-09-13T19:34:49.105Z,12.89
2022-09-13T19:36:58.310Z,12.84
2022-09-13T19:39:02.637Z,12.82
2022-09-13T19:41:09.262Z,12.79
2022-09-13T19:43:13.289Z,12.75
2022-09-13T19:45:17.669Z,12.72
2022-09-13T19:48:19.389Z,12.67
2022-09-13T19:49:49.928Z,12.64
2022-09-13T19:51:55.116Z,12.60
2022-09-13T19:54:00.041Z,12.58
2022-09-13T19:56:06.882Z,12.54
2022-09-13T19:58:10.974Z,12.51
2022-09-13T20:00:15.391Z,12.48
2022-09-13T20:02:19.771Z,12.45
2022-09-13T20:04:24.999Z,12.41
2022-09-13T20:06:30.460Z,12.41
2022-09-13T20:08:36.823Z,12.39
2022-09-13T20:10:40.790Z,12.39
2022-09-13T20:12:45.337Z,12.34
2022-09-13T20:14:49.188Z,12.33
2022-09-13T20:16:54.566Z,12.29
2022-09-13T20:18:58.551Z,12.25
2022-09-13T20:21:05.158Z,12.22
2022-09-13T20:23:08.957Z,12.19
2022-09-13T20:25:14.238Z,12.18
2022-09-13T20:27:19.118Z,12.19
2022-09-13T20:29:22.931Z,12.16
2022-09-13T20:31:27.655Z,12.14
2022-09-13T20:33:31.421Z,12.10
2022-09-13T20:35:38.115Z,12.07
2022-09-13T20:37:41.647Z,12.05
2022-09-13T20:39:45.671Z,12.04
2022-09-13T20:41:51.625Z,12.03
2022-09-13T20:43:56.250Z,12.04
2022-09-13T20:46:01.167Z,12.01
2022-09-13T20:48:05.593Z,11.99
2022-09-13T20:50:10.246Z,11.98
2022-09-13T20:52:14.838Z,11.95
2022-09-13T20:54:19.187Z,11.95
2022-09-13T20:56:24.016Z,11.94
2022-09-13T20:58:30.236Z,11.92
2022-09-13T21:00:34.555Z,11.88
2022-09-13T21:02:38.857Z,11.84
2022-09-13T21:04:42.803Z,11.82
2022-09-13T21:07:00.778Z,11.79
2022-09-13T21:09:05.059Z,11.78
2022-09-13T21:11:11.180Z,11.76
2022-09-13T21:13:15.570Z,11.73
2022-09-13T21:15:22.371Z,11.70
2022-09-13T21:17:27.211Z,11.69
2022-09-13T21:19:31.815Z,11.64
2022-09-13T21:21:38.620Z,11.61
2022-09-13T21:23:43.211Z,11.58
2022-09-13T21:25:47.480Z,11.55
2022-09-13T21:27:52.316Z,11.53
2022-09-13T21:29:56.904Z,11.49
2022-09-13T21:32:02.710Z,11.45
2022-09-13T21:34:08.869Z,11.44
2022-09-13T21:36:14.128Z,11.42
2022-09-13T21:38:18.760Z,11.41
2022-09-13T21:40:23.414Z,11.40
2022-09-13T21:42:28.584Z,11.37
2022-09-13T21:44:33.018Z,11.34
2022-09-13T21:46:39.005Z,11.29
2022-09-13T21:48:47.005Z,11.31
2022-09-13T21:50:51.904Z,11.30
2022-09-13T21:52:56.373Z,11.30
2022-09-13T21:55:00.487Z,11.30
2022-09-13T21:57:04.488Z,11.28
2022-09-13T21:59:10.828Z,11.27
2022-09-13T22:01:17.405Z,11.24
2022-09-13T22:03:21.965Z,11.22
2022-09-13T22:05:27.691Z,11.23
2022-09-13T22:07:33.826Z,11.23
2022-09-13T22:09:38.039Z,11.25
2022-09-13T22:11:43.958Z,11.27
2022-09-13T22:13:49.308Z,11.25
2022-09-13T22:15:53.498Z,11.27
2022-09-13T22:17:58.057Z,11.27
2022-09-13T22:20:02.186Z,11.26
2022-09-13T22:22:07.970Z,11.27
2022-09-13T22:24:16.335Z,11.27
2022-09-13T22:26:22.830Z,11.27
2022-09-13T22:28:27.433Z,11.32
2022-09-13T22:30:32.984Z,11.33
2022-09-13T22:32:37.740Z,11.35
2022-09-13T22:34:41.746Z,11.37
2022-09-13T22:36:46.678Z,11.39
2022-09-13T22:38:55.028Z,11.40
2022-09-13T22:41:00.800Z,11.41
2022-09-13T22:43:05.061Z,11.39
2022-09-13T22:45:09.895Z,11.37
2022-09-13T22:47:14.353Z,11.36
2022-09-13T22:49:20.651Z,11.35
2022-09-13T22:51:24.801Z,11.34
2022-09-13T22:53:30.364Z,11.35
2022-09-13T22:55:37.116Z,11.39
2022-09-13T22:57:41.158Z,11.41
2022-09-13T22:59:45.181Z,11.44
2022-09-13T23:01:50.196Z,11.46
2022-09-13T23:03:55.064Z,11.51
2022-09-13T23:05:59.541Z,11.52
2022-09-13T23:08:05.074Z,11.56
2022-09-13T23:10:10.685Z,11.59
2022-09-13T23:12:16.415Z,11.63
2022-09-13T23:14:21.769Z,11.65
2022-09-13T23:16:27.466Z,11.69
2022-09-13T23:18:33.413Z,11.71
2022-09-13T23:20:37.955Z,11.75
2022-09-13T23:22:42.924Z,11.79
2022-09-13T23:24:46.805Z,11.80
2022-09-13T23:26:50.736Z,11.83
2022-09-13T23:29:02.087Z,11.87
2022-09-13T23:31:11.701Z,11.89
2022-09-13T23:33:17.388Z,11.92
2022-09-13T23:35:21.572Z,11.93
2022-09-13T23:37:25.398Z,11.95
2022-09-13T23:39:30.091Z,11.97
2022-09-13T23:41:34.680Z,11.97
2022-09-13T23:43:38.774Z,11.99
2022-09-13T23:45:44.717Z,12.00
2022-09-13T23:47:48.311Z,12.00
2022-09-13T23:49:52.263Z,12.02
2022-09-13T23:51:55.781Z,12.03
2022-09-13T23:54:01.236Z,12.05
2022-09-13T23:56:05.737Z,12.06
2022-09-13T23:58:09.697Z,12.08
